Time;durP1;ratioP1;P1;durP2;ratioP2;P2;SDS_P1;SDS_P2;PMS_P1;PMS_P2;Temp;Humidity;BMP_temperature;BMP_pressure;BME280_temperature;BME280_humidity;BME280_pressure;Samples;Min_cycle;Max_cycle;Signal;HPM_P1;HPM_P2
2023/01/06 00:00:07;;;;;;;0.30;0.30;;;;;;;8.34;72.93;99972.25;5094150;28;20036;-64
2023/01/06 00:02:35;;;;;;;0.30;0.30;;;;;;;8.30;73.25;99974.72;5093851;28;20283;-65
2023/01/06 00:05:05;;;;;;;0.20;0.20;;;;;;;8.29;72.89;99978.09;5093842;28;20036;-64
2023/01/06 00:07:34;;;;;;;0.30;0.30;;;;;;;8.27;72.99;99972.13;5093812;28;20048;-64
2023/01/06 00:10:05;;;;;;;0.40;0.40;;;;;;;8.18;72.36;99966.91;5094066;28;20047;-64
2023/01/06 00:12:34;;;;;;;0.73;0.73;;;;;;;8.18;72.98;99964.34;5094060;28;20044;-63
2023/01/06 00:15:03;;;;;;;0.30;0.30;;;;;;;8.19;73.67;99966.06;5093614;28;20097;-63
2023/01/06 00:17:32;;;;;;;0.30;0.30;;;;;;;8.19;72.85;99960.97;5093702;28;20127;-64
2023/01/06 00:20:01;;;;;;;0.30;0.30;;;;;;;8.17;72.26;99965.19;5093652;28;20036;-63
2023/01/06 00:22:30;;;;;;;0.30;0.30;;;;;;;8.13;72.72;99964.31;5093611;28;20042;-64
2023/01/06 00:24:58;;;;;;;0.40;0.40;;;;;;;8.10;72.83;99967.66;5093512;28;20334;-64
2023/01/06 00:27:31;;;;;;;0.38;0.38;;;;;;;8.07;72.32;99982.00;5093914;28;20040;-64
2023/01/06 00:30:00;;;;;;;0.40;0.40;;;;;;;8.00;73.13;99981.06;5093723;28;20048;-65
2023/01/06 00:32:28;;;;;;;0.20;0.20;;;;;;;7.95;73.74;99987.75;5092389;28;20040;-64
2023/01/06 00:34:59;;;;;;;0.57;0.57;;;;;;;7.93;72.90;99994.50;5093799;28;20054;-63
2023/01/06 00:37:27;;;;;;;0.30;0.30;;;;;;;7.91;73.29;99996.19;5093827;28;20072;-63
2023/01/06 00:39:56;;;;;;;0.40;0.40;;;;;;;7.88;72.53;100001.22;5092328;28;20164;-63
2023/01/06 00:42:25;;;;;;;0.30;0.30;;;;;;;7.84;73.58;99998.59;5092497;28;20494;-63
2023/01/06 00:44:55;;;;;;;0.45;0.45;;;;;;;7.77;73.25;100006.97;5093432;28;20277;-63
2023/01/06 00:47:24;;;;;;;0.30;0.30;;;;;;;7.61;73.73;100005.84;5092811;28;20109;-63
2023/01/06 00:49:53;;;;;;;0.68;0.68;;;;;;;7.51;74.29;100014.16;5093720;28;20036;-63
2023/01/06 00:52:21;;;;;;;0.60;0.60;;;;;;;7.39;74.74;100003.78;5093617;28;20094;-63
2023/01/06 00:54:50;;;;;;;0.30;0.30;;;;;;;7.21;74.38;100013.63;5092404;28;20114;-63
2023/01/06 00:57:19;;;;;;;0.40;0.40;;;;;;;7.14;74.55;100014.34;5093301;28;20036;-63
2023/01/06 00:59:48;;;;;;;0.40;0.40;;;;;;;7.08;75.02;100011.72;5093393;28;20117;-64
2023/01/06 01:02:20;;;;;;;0.28;0.28;;;;;;;7.01;75.03;100017.47;5093951;28;20294;-63
2023/01/06 01:04:49;;;;;;;0.50;0.50;;;;;;;6.96;75.63;100019.09;5096278;28;20052;-63
2023/01/06 01:07:18;;;;;;;6.30;1.60;;;;;;;6.98;76.64;100014.91;5095970;28;20047;-64
2023/01/06 01:09:46;;;;;;;1.70;1.07;;;;;;;6.97;76.05;100028.41;5097608;28;20043;-63
2023/01/06 01:12:15;;;;;;;0.30;0.30;;;;;;;6.94;75.93;100023.25;5096464;28;20036;-63
2023/01/06 01:14:47;;;;;;;0.40;0.40;;;;;;;6.93;76.00;100024.97;5096987;28;20137;-63
2023/01/06 01:17:19;;;;;;;4.53;1.70;;;;;;;6.90;75.51;100024.91;5095710;28;20052;-63
2023/01/06 01:19:53;;;;;;;0.28;0.28;;;;;;;6.94;76.74;100020.72;5096978;28;20063;-63
2023/01/06 01:22:23;;;;;;;0.50;0.50;;;;;;;6.96;75.48;100031.78;5095648;28;20040;-63
2023/01/06 01:24:52;;;;;;;0.30;0.30;;;;;;;6.93;75.73;100030.03;5096810;28;20044;-63
2023/01/06 01:27:21;;;;;;;0.40;0.40;;;;;;;6.84;75.64;100037.44;5096765;28;20093;-63
2023/01/06 01:29:52;;;;;;;0.40;0.40;;;;;;;6.73;75.33;100037.25;5096552;28;20299;-64
2023/01/06 01:32:23;;;;;;;0.30;0.30;;;;;;;6.68;75.61;100031.22;5095796;28;20486;-63
2023/01/06 01:34:52;;;;;;;0.38;0.38;;;;;;;6.57;75.30;100032.69;5096991;28;20075;-63
2023/01/06 01:37:20;;;;;;;0.50;0.50;;;;;;;6.57;75.42;100027.63;5096473;28;20044;-63
2023/01/06 01:39:49;;;;;;;0.40;0.40;;;;;;;6.58;75.47;100034.38;5095361;28;20143;-63
2023/01/06 01:42:21;;;;;;;0.50;0.50;;;;;;;6.55;75.26;100029.25;5095341;28;20036;-64
2023/01/06 01:44:57;;;;;;;0.40;0.40;;;;;;;6.59;76.09;100035.25;5096391;28;20055;-63
2023/01/06 01:47:35;;;;;;;0.65;0.55;;;;;;;6.58;75.54;100042.00;5096438;28;20558;-63
2023/01/06 01:50:11;;;;;;;0.90;0.63;;;;;;;6.52;76.03;100034.28;5096388;28;20052;-64
2023/01/06 01:52:42;;;;;;;0.82;0.70;;;;;;;6.53;76.18;100046.13;5096608;28;20062;-63
2023/01/06 01:55:12;;;;;;;0.30;0.30;;;;;;;6.52;74.99;100044.41;5095307;28;20394;-63
2023/01/06 01:57:54;;;;;;;0.30;0.30;;;;;;;6.54;75.36;100052.91;5096066;28;20051;-63
2023/01/06 02:00:25;;;;;;;0.52;0.52;;;;;;;6.46;75.60;100062.03;5096507;28;20052;-63
2023/01/06 02:02:56;;;;;;;0.85;0.85;;;;;;;6.42;74.94;100052.66;5096305;28;20506;-64
2023/01/06 02:05:28;;;;;;;0.50;0.50;;;;;;;6.29;75.39;100070.06;5096642;28;20138;-63
2023/01/06 02:08:01;;;;;;;0.30;0.30;;;;;;;6.17;75.75;100063.03;5096044;28;20097;-63
2023/01/06 02:10:30;;;;;;;0.77;0.55;;;;;;;6.10;75.92;100063.72;5095982;28;20510;-64
2023/01/06 02:13:00;;;;;;;0.47;0.47;;;;;;;6.03;76.48;100057.66;5094731;28;20040;-63
2023/01/06 02:15:31;;;;;;;0.57;0.57;;;;;;;5.99;76.40;100055.03;5094555;28;20441;-63
2023/01/06 02:18:23;;;;;;;0.88;0.88;;;;;;;5.87;76.15;100064.88;5096106;28;20413;-63
2023/01/06 02:21:14;;;;;;;0.70;0.70;;;;;;;5.72;76.74;100056.88;5096366;28;20478;-64
2023/01/06 02:24:13;;;;;;;0.95;0.95;;;;;;;5.52;76.90;100056.38;5095685;28;20486;-63
2023/01/06 02:27:13;;;;;;;0.30;0.30;;;;;;;5.49;77.46;100055.44;5084236;28;20482;-63
2023/01/06 02:30:13;;;;;;;0.40;0.40;;;;;;;5.51;78.09;100059.72;5094711;28;20085;-63
2023/01/06 02:32:59;;;;;;;0.60;0.60;;;;;;;5.50;78.30;100052.06;5095869;28;20486;-63
2023/01/06 02:35:54;;;;;;;0.30;0.30;;;;;;;5.47;78.05;100057.09;5094253;28;20044;-63
2023/01/06 02:38:35;;;;;;;0.30;0.30;;;;;;;5.45;78.67;100063.78;5095414;28;20052;-63
2023/01/06 02:41:28;;;;;;;0.28;0.28;;;;;;;5.43;78.51;100057.00;5095371;28;20044;-63
2023/01/06 02:44:04;;;;;;;0.20;0.20;;;;;;;5.43;78.43;100062.06;5094110;28;20058;-63
2023/01/06 02:46:57;;;;;;;0.40;0.40;;;;;;;5.40;78.75;100067.03;5095219;28;20093;-63
2023/01/06 02:49:37;;;;;;;0.22;0.22;;;;;;;5.23;78.82;100054.78;5092152;28;20398;-64
2023/01/06 02:52:11;;;;;;;;;;;;;;;5.25;79.00;100076.78;5094428;28;20055;-63
2023/01/06 02:54:53;;;;;;;0.30;0.30;;;;;;;5.18;79.11;100079.09;5095143;28;19951;-63
2023/01/06 02:57:30;;;;;;;0.30;0.30;;;;;;;5.14;79.03;100088.25;5095178;28;20389;-63
2023/01/06 03:00:11;;;;;;;0.50;0.50;;;;;;;5.12;79.53;100084.84;5095310;28;20059;-63
2023/01/06 03:02:42;;;;;;;;;;;;;;;5.06;79.31;100084.66;5094216;28;20062;-64
2023/01/06 03:05:16;;;;;;;0.32;0.32;;;;;;;5.04;79.35;100086.28;5094955;28;19924;-64
2023/01/06 03:07:48;;;;;;;0.40;0.40;;;;;;;5.04;80.18;100081.22;5094796;28;20040;-63
2023/01/06 03:10:23;;;;;;;0.70;0.70;;;;;;;4.96;79.80;100087.78;5094980;28;20074;-63
2023/01/06 03:12:57;;;;;;;0.47;0.47;;;;;;;4.93;79.92;100077.56;5094768;28;20097;-63
2023/01/06 03:15:27;;;;;;;0.28;0.28;;;;;;;4.85;80.05;100084.06;5094781;28;20573;-63
2023/01/06 03:17:56;;;;;;;0.45;0.45;;;;;;;4.67;80.05;100083.56;5094464;28;20047;-63
2023/01/06 03:20:26;;;;;;;0.47;0.47;;;;;;;4.57;80.31;100081.56;5093419;28;20047;-63
2023/01/06 03:22:55;;;;;;;0.40;0.40;;;;;;;4.58;80.31;100084.13;5094596;28;20127;-64
2023/01/06 03:25:24;;;;;;;0.20;0.20;;;;;;;4.58;80.85;100076.53;5094559;28;20040;-63
2023/01/06 03:27:54;;;;;;;0.50;0.50;;;;;;;4.48;80.86;100068.66;5092438;28;20048;-63
2023/01/06 03:30:28;;;;;;;0.30;0.30;;;;;;;4.55;81.08;100081.53;5094778;28;20070;-64
2023/01/06 03:33:06;;;;;;;0.55;0.55;;;;;;;4.46;80.93;100085.44;5094688;28;20070;-63
2023/01/06 03:35:49;;;;;;;0.40;0.40;;;;;;;4.44;81.16;100089.59;5094422;28;20048;-64
2023/01/06 03:38:29;;;;;;;0.30;0.30;;;;;;;4.45;81.33;100091.31;5094280;28;20131;-63
2023/01/06 03:41:09;;;;;;;0.40;0.40;;;;;;;4.52;81.74;100094.06;5094525;28;20075;-63
2023/01/06 03:43:44;;;;;;;0.50;0.50;;;;;;;4.48;81.54;100096.47;5093093;28;20082;-63
2023/01/06 03:46:24;;;;;;;0.90;0.65;;;;;;;4.40;81.52;100092.81;5094159;28;20070;-63
2023/01/06 03:49:04;;;;;;;0.43;0.43;;;;;;;4.43;82.04;100095.47;5094079;28;20044;-64
2023/01/06 03:51:48;;;;;;;0.30;0.30;;;;;;;4.56;81.81;100095.84;5094344;28;20387;-64
2023/01/06 03:54:30;;;;;;;0.75;0.63;;;;;;;4.71;81.59;100101.38;5094078;28;20055;-63
2023/01/06 03:57:07;;;;;;;0.50;0.50;;;;;;;4.77;81.46;100108.28;5093989;28;20482;-63
2023/01/06 03:59:40;;;;;;;0.40;0.40;;;;;;;4.71;81.80;100111.50;5093864;28;20524;-63
2023/01/06 04:02:10;;;;;;;0.55;0.55;;;;;;;4.69;81.63;100114.78;5093082;28;20048;-63
2023/01/06 04:04:39;;;;;;;0.30;0.30;;;;;;;4.65;81.54;100120.56;5092988;28;20051;-64
2023/01/06 04:07:10;;;;;;;0.40;0.40;;;;;;;4.63;81.51;100122.19;5093151;28;20040;-63
2023/01/06 04:09:42;;;;;;;0.40;0.40;;;;;;;4.61;81.72;100122.13;5092793;28;20135;-64
2023/01/06 04:14:53;;;;;;;0.30;0.30;;;;;;;4.57;81.75;100127.06;5093138;28;20040;-64
2023/01/06 04:17:22;;;;;;;0.30;0.30;;;;;;;4.55;81.59;100131.22;5092477;28;20131;-64
2023/01/06 04:19:52;;;;;;;0.40;0.40;;;;;;;4.54;81.58;100126.94;5093671;28;20052;-64
2023/01/06 04:22:23;;;;;;;0.30;0.30;;;;;;;4.54;81.73;100124.44;5093686;28;20032;-64
2023/01/06 04:24:52;;;;;;;0.50;0.50;;;;;;;4.54;81.62;100121.91;5093708;28;20130;-64
2023/01/06 04:27:21;;;;;;;0.30;0.30;;;;;;;4.51;81.87;100132.78;5092431;28;20044;-64
2023/01/06 04:29:50;;;;;;;0.40;0.40;;;;;;;4.55;81.91;100128.69;5092149;28;20052;-64
2023/01/06 04:32:19;;;;;;;0.30;0.30;;;;;;;4.53;81.72;100135.38;5093911;28;20070;-64
2023/01/06 04:34:48;;;;;;;0.30;0.30;;;;;;;4.57;81.57;100132.09;5092406;28;20036;-64
2023/01/06 04:37:19;;;;;;;0.30;0.30;;;;;;;4.59;81.70;100135.53;5093794;28;20452;-64
2023/01/06 04:39:50;;;;;;;0.43;0.43;;;;;;;4.54;81.63;100137.94;5096749;28;20036;-64
2023/01/06 04:42:19;;;;;;;0.30;0.30;;;;;;;4.49;81.51;100148.69;5097707;28;20055;-64
2023/01/06 04:44:48;;;;;;;0.20;0.20;;;;;;;4.61;81.90;100142.34;5097605;28;20040;-64
2023/01/06 04:47:17;;;;;;;0.43;0.43;;;;;;;4.66;81.82;100147.53;5096359;28;20044;-63
2023/01/06 04:49:45;;;;;;;0.60;0.60;;;;;;;4.59;81.43;100160.81;5097804;28;20088;-64
2023/01/06 04:52:16;;;;;;;0.40;0.40;;;;;;;4.48;81.40;100155.44;5097461;28;20498;-63
2023/01/06 04:54:44;;;;;;;0.30;0.30;;;;;;;4.36;81.68;100166.84;5097477;28;20044;-64
2023/01/06 04:57:15;;;;;;;0.20;0.20;;;;;;;4.23;81.36;100170.63;5097809;28;20135;-64
2023/01/06 04:59:43;;;;;;;0.57;0.57;;;;;;;4.08;81.70;100165.06;5097297;28;20052;-63
2023/01/06 05:02:12;;;;;;;0.50;0.50;;;;;;;4.07;81.70;100169.28;5097590;28;20044;-65
2023/01/06 05:04:41;;;;;;;0.50;0.50;;;;;;;4.06;81.97;100170.09;5097557;28;20071;-64
2023/01/06 05:07:15;;;;;;;0.30;0.30;;;;;;;3.92;81.89;100173.81;5097325;28;20078;-64
2023/01/06 05:09:44;;;;;;;0.50;0.50;;;;;;;3.90;82.26;100180.50;5097052;28;20130;-63
2023/01/06 05:12:14;;;;;;;0.60;0.60;;;;;;;3.84;82.37;100180.25;5097089;28;20300;-64
2023/01/06 05:14:43;;;;;;;0.75;0.75;;;;;;;3.80;82.45;100178.44;5097103;28;20040;-63
2023/01/06 05:17:12;;;;;;;0.50;0.50;;;;;;;3.71;82.09;100187.38;5096902;28;20044;-63
2023/01/06 05:19:43;;;;;;;0.40;0.40;;;;;;;3.56;82.43;100182.66;5097539;28;20078;-63
2023/01/06 05:22:12;;;;;;;1.15;1.05;;;;;;;3.52;82.42;100179.97;5096897;28;20048;-63
2023/01/06 05:24:41;;;;;;;0.50;0.50;;;;;;;3.53;82.51;100180.03;5097392;28;20376;-63
2023/01/06 05:27:10;;;;;;;0.40;0.40;;;;;;;3.56;83.19;100185.19;5096820;28;20042;-63
2023/01/06 05:29:40;;;;;;;0.50;0.50;;;;;;;3.51;83.25;100186.69;5096704;28;20056;-63
2023/01/06 05:32:10;;;;;;;0.77;0.77;;;;;;;3.41;83.22;100196.41;5096760;28;20119;-64
2023/01/06 05:34:39;;;;;;;0.40;0.40;;;;;;;3.37;83.33;100195.44;5096628;28;20068;-63
2023/01/06 05:37:08;;;;;;;0.50;0.50;;;;;;;3.35;83.48;100202.09;5096805;28;20047;-64
2023/01/06 05:39:36;;;;;;;0.40;0.40;;;;;;;3.35;82.93;100197.03;5096840;28;20458;-65
2023/01/06 05:42:05;;;;;;;0.63;0.63;;;;;;;3.38;82.84;100207.25;5096454;28;20086;-65
2023/01/06 05:44:34;;;;;;;0.30;0.30;;;;;;;3.37;83.28;100210.56;5096485;28;20284;-65
2023/01/06 05:47:05;;;;;;;1.50;1.27;;;;;;;3.25;83.15;100217.69;5096438;28;20089;-65
2023/01/06 05:49:33;;;;;;;0.82;0.82;;;;;;;3.13;83.03;100214.69;5096211;28;20416;-64
2023/01/06 05:52:02;;;;;;;0.47;0.47;;;;;;;3.10;83.80;100222.16;5096305;28;20048;-64
2023/01/06 05:54:31;;;;;;;0.43;0.43;;;;;;;3.10;84.19;100227.19;5096299;28;20285;-63
2023/01/06 05:57:00;;;;;;;0.50;0.50;;;;;;;3.10;83.73;100224.66;5096214;28;20074;-64
2023/01/06 05:59:28;;;;;;;0.40;0.40;;;;;;;3.05;84.08;100232.06;5096367;28;20047;-63
2023/01/06 06:01:57;;;;;;;0.57;0.57;;;;;;;3.06;84.19;100238.84;5096390;28;20040;-64
2023/01/06 06:04:27;;;;;;;0.90;0.70;;;;;;;3.08;84.41;100246.44;5096348;28;20048;-64
2023/01/06 06:06:56;;;;;;;1.17;1.13;;;;;;;3.06;84.05;100253.09;5096322;28;20048;-64
2023/01/06 06:09:25;;;;;;;0.50;0.50;;;;;;;3.04;84.25;100249.66;5095995;28;20074;-64
2023/01/06 06:11:54;;;;;;;1.47;0.93;;;;;;;3.00;83.82;100247.84;5095891;28;20490;-64
2023/01/06 06:14:23;;;;;;;0.50;0.50;;;;;;;2.86;83.83;100261.53;5096051;28;20337;-64
2023/01/06 06:16:54;;;;;;;1.33;1.23;;;;;;;2.72;84.03;100251.78;5096455;28;20390;-64
2023/01/06 06:19:23;;;;;;;0.70;0.70;;;;;;;2.66;84.67;100265.81;5095762;28;20044;-65
2023/01/06 06:21:54;;;;;;;0.60;0.60;;;;;;;2.65;84.20;100264.09;5096339;28;20444;-64
2023/01/06 06:24:23;;;;;;;0.30;0.30;;;;;;;2.59;84.55;100248.75;5096043;28;20036;-64
2023/01/06 06:26:52;;;;;;;0.47;0.47;;;;;;;2.68;84.36;100260.03;5095701;28;20036;-63
2023/01/06 06:29:20;;;;;;;1.10;1.03;;;;;;;2.71;84.42;100262.66;5095365;28;20064;-64
2023/01/06 06:31:49;;;;;;;0.95;0.93;;;;;;;2.78;85.07;100267.97;5095520;28;20090;-64
2023/01/06 06:34:18;;;;;;;0.70;0.70;;;;;;;2.82;84.65;100267.28;5095502;28;20086;-63
2023/01/06 06:36:47;;;;;;;1.13;0.73;;;;;;;2.78;84.41;100262.91;5095701;28;20501;-64
2023/01/06 06:39:17;;;;;;;1.30;1.20;;;;;;;2.76;84.51;100277.13;5095848;28;20605;-64
2023/01/06 06:41:47;;;;;;;0.70;0.70;;;;;;;2.69;85.27;100276.88;5095647;28;20444;-64
2023/01/06 06:44:16;;;;;;;0.40;0.40;;;;;;;2.67;85.66;100283.50;5095327;28;20123;-63
2023/01/06 06:46:44;;;;;;;0.50;0.50;;;;;;;2.69;85.55;100281.91;5095513;28;20064;-64
2023/01/06 06:49:13;;;;;;;1.03;1.00;;;;;;;2.64;85.58;100288.41;5095481;28;20281;-63
2023/01/06 06:51:42;;;;;;;1.55;1.25;;;;;;;2.59;85.62;100294.94;5095417;28;20036;-64
2023/01/06 06:54:11;;;;;;;0.93;0.93;;;;;;;2.68;85.55;100285.25;5095090;28;20048;-63
2023/01/06 06:56:41;;;;;;;1.97;1.27;;;;;;;2.78;85.41;100295.69;5095070;28;20611;-64
2023/01/06 06:59:10;;;;;;;1.25;1.15;;;;;;;2.75;85.55;100296.41;5094899;28;20040;-63
2023/01/06 07:01:38;;;;;;;0.60;0.60;;;;;;;2.80;85.31;100299.97;5094308;28;20036;-63
2023/01/06 07:04:09;;;;;;;3.58;1.60;;;;;;;2.92;85.57;100309.69;5094830;28;20090;-64
2023/01/06 07:06:38;;;;;;;0.65;0.65;;;;;;;3.08;85.43;100301.91;5094816;28;20127;-64
2023/01/06 07:09:06;;;;;;;1.70;1.60;;;;;;;3.20;85.68;100313.34;5095334;28;20484;-63
2023/01/06 07:11:35;;;;;;;1.48;1.38;;;;;;;3.26;85.55;100308.53;5095317;28;20126;-64
2023/01/06 07:14:05;;;;;;;1.20;1.10;;;;;;;3.32;85.79;100318.00;5094731;28;20051;-63
2023/01/06 07:16:34;;;;;;;0.52;0.52;;;;;;;3.59;86.54;100319.03;5094662;28;20067;-64
2023/01/06 07:19:03;;;;;;;1.57;1.47;;;;;;;3.67;85.70;100315.13;5094558;28;20063;-63
2023/01/06 07:21:32;;;;;;;1.05;1.02;;;;;;;3.70;86.22;100317.75;5094574;28;20071;-64
2023/01/06 07:24:00;;;;;;;1.77;1.53;;;;;;;3.66;85.64;100320.97;5095099;28;20028;-65
2023/01/06 07:26:29;;;;;;;3.50;2.80;;;;;;;3.58;85.36;100313.91;5095036;28;20118;-63
2023/01/06 07:28:58;;;;;;;1.25;1.15;;;;;;;3.62;86.05;100326.72;5094314;28;20110;-64
2023/01/06 07:31:28;;;;;;;0.87;0.87;;;;;;;3.70;85.69;100327.84;5094128;28;20040;-65
2023/01/06 07:33:57;;;;;;;2.58;1.65;;;;;;;3.70;85.77;100322.81;5094168;28;20075;-65
2023/01/06 07:36:26;;;;;;;2.83;2.63;;;;;;;3.68;86.07;100328.59;5094311;28;20059;-64
2023/01/06 07:38:55;;;;;;;2.07;1.93;;;;;;;3.70;85.66;100337.94;5094427;28;20058;-64
2023/01/06 07:41:23;;;;;;;2.47;2.28;;;;;;;3.71;85.94;100329.59;5094240;28;20036;-64
2023/01/06 07:43:52;;;;;;;1.50;1.40;;;;;;;3.71;85.89;100329.59;5094501;28;20394;-64
2023/01/06 07:46:21;;;;;;;2.10;1.88;;;;;;;3.74;86.08;100324.63;5094090;28;20131;-64
2023/01/06 07:48:51;;;;;;;2.88;1.13;;;;;;;3.75;86.00;100340.63;5094422;28;20041;-64
2023/01/06 07:51:20;;;;;;;0.95;0.95;;;;;;;3.82;86.45;100330.81;5094078;28;20094;-63
2023/01/06 07:53:49;;;;;;;0.85;0.85;;;;;;;3.95;85.93;100330.47;5094053;28;20036;-63
2023/01/06 07:56:18;;;;;;;2.33;1.37;;;;;;;4.06;86.52;100338.41;5094020;28;20086;-63
2023/01/06 07:58:47;;;;;;;0.68;0.68;;;;;;;4.14;85.97;100338.69;5094249;28;20044;-64
2023/01/06 08:01:16;;;;;;;1.35;1.27;;;;;;;4.23;86.65;100336.47;5093947;28;20078;-64
2023/01/06 08:03:45;;;;;;;0.73;0.73;;;;;;;4.30;86.57;100330.84;5097615;28;20085;-63
2023/01/06 08:06:15;;;;;;;1.70;1.60;;;;;;;4.33;86.62;100328.41;5113421;28;20044;-64
2023/01/06 08:08:44;;;;;;;1.65;1.52;;;;;;;4.38;86.29;100337.03;5108681;28;20044;-64
2023/01/06 08:11:13;;;;;;;1.45;1.27;;;;;;;4.42;86.26;100336.31;5094150;28;20119;-64
2023/01/06 08:13:43;;;;;;;1.17;1.08;;;;;;;4.47;86.53;100322.16;5093520;28;20055;-64
2023/01/06 08:16:12;;;;;;;1.23;0.97;;;;;;;4.51;86.03;100324.84;5093688;28;20097;-64
2023/01/06 08:18:41;;;;;;;0.90;0.90;;;;;;;4.57;85.97;100324.19;5093629;28;20036;-64
2023/01/06 08:21:11;;;;;;;0.50;0.50;;;;;;;4.62;85.77;100327.75;5094466;28;20383;-64
2023/01/06 08:23:41;;;;;;;1.50;1.40;;;;;;;4.72;85.92;100329.78;5093497;28;20490;-64
2023/01/06 08:26:13;;;;;;;1.52;1.17;;;;;;;4.82;85.73;100336.00;5093610;28;20059;-63
2023/01/06 08:28:43;;;;;;;3.05;2.05;;;;;;;4.89;85.71;100332.84;5093311;28;20048;-63
2023/01/06 08:31:14;;;;;;;1.33;1.23;;;;;;;5.00;85.57;100332.38;5093947;28;20139;-63
2023/01/06 08:33:44;;;;;;;1.20;1.10;;;;;;;5.03;85.60;100324.88;5093556;28;20048;-63
2023/01/06 08:36:15;;;;;;;3.00;1.85;;;;;;;5.17;85.61;100336.28;5093870;28;20466;-63
2023/01/06 08:38:47;;;;;;;7.65;2.20;;;;;;;5.22;85.46;100342.34;5093778;28;20044;-64
2023/01/06 12:54:51;;;;;;;0.40;0.40;;;;;;;8.65;71.03;100177.88;5132960;27;20850;-64
2023/01/06 12:57:36;;;;;;;0.40;0.40;;;;;;;8.69;70.85;100171.13;5131112;28;20393;-65
2023/01/06 13:00:25;;;;;;;0.40;0.40;;;;;;;8.70;71.14;100181.34;5131915;27;20039;-65
2023/01/06 13:03:06;;;;;;;0.73;0.73;;;;;;;8.72;71.38;100184.75;5131810;27;20493;-65
2023/01/06 13:05:51;;;;;;;0.65;0.65;;;;;;;8.74;71.78;100182.22;5131859;28;20054;-65
2023/01/06 13:08:31;;;;;;;1.13;1.02;;;;;;;8.70;71.71;100180.47;5131750;27;20047;-65
2023/01/06 13:11:13;;;;;;;0.77;0.77;;;;;;;8.73;71.69;100171.19;5131497;27;20044;-65
2023/01/06 13:13:58;;;;;;;0.55;0.55;;;;;;;8.70;71.42;100170.28;5131516;28;20132;-65
2023/01/06 13:16:36;;;;;;;0.20;0.20;;;;;;;8.71;72.18;100169.44;5131934;27;20061;-65
2023/01/06 13:19:21;;;;;;;1.33;1.25;;;;;;;8.72;72.15;100171.16;5131394;28;20052;-65
2023/01/06 13:21:53;;;;;;;0.80;0.80;;;;;;;8.72;71.12;100168.63;5131451;28;20047;-65
2023/01/06 13:24:42;;;;;;;1.00;0.85;;;;;;;8.71;71.27;100177.06;5131374;28;20096;-65
2023/01/06 13:27:38;;;;;;;0.50;0.50;;;;;;;8.72;71.63;100164.41;5131654;27;20484;-65
2023/01/06 13:30:27;;;;;;;0.40;0.40;;;;;;;8.73;71.03;100171.19;5131969;27;20085;-65
2023/01/06 13:33:15;;;;;;;0.40;0.40;;;;;;;8.76;71.37;100180.53;5131399;28;20124;-65
2023/01/06 13:36:08;;;;;;;0.53;0.53;;;;;;;8.80;70.63;100172.16;5131259;27;20071;-65
2023/01/06 13:38:52;;;;;;;0.50;0.50;;;;;;;8.83;71.55;100167.06;5131432;28;20370;-65
2023/01/06 13:41:25;;;;;;;0.73;0.73;;;;;;;8.80;70.66;100172.16;5131442;27;20039;-65
2023/01/06 13:43:58;;;;;;;0.77;0.77;;;;;;;8.77;70.81;100169.53;5131060;27;20043;-65
2023/01/06 13:46:30;;;;;;;0.82;0.82;;;;;;;8.76;70.83;100150.88;5131039;28;20039;-65
2023/01/06 13:49:02;;;;;;;1.15;1.08;;;;;;;8.75;71.00;100158.50;5130941;27;20043;-65
2023/01/06 13:51:36;;;;;;;0.47;0.47;;;;;;;8.74;70.95;100159.31;5130793;27;20398;-65
2023/01/06 13:54:05;;;;;;;2.95;1.98;;;;;;;8.76;71.51;100165.28;5130293;28;20085;-65
2023/01/06 13:56:35;;;;;;;0.40;0.40;;;;;;;8.77;71.12;100159.38;5130796;27;20092;-65
2023/01/06 13:59:20;;;;;;;0.52;0.52;;;;;;;8.78;71.33;100154.28;5130748;27;20044;-65
2023/01/06 14:01:50;;;;;;;0.40;0.40;;;;;;;8.76;70.86;100153.41;5130707;27;20053;-65
2023/01/06 14:04:42;;;;;;;0.38;0.38;;;;;;;8.77;70.71;100157.69;5126843;27;20050;-65
2023/01/06 14:07:11;;;;;;;0.80;0.80;;;;;;;8.74;70.67;100151.69;5117193;28;20511;-65
2023/01/06 14:09:48;;;;;;;0.43;0.43;;;;;;;8.75;70.96;100155.94;5116840;28;20035;-65
2023/01/06 14:12:21;;;;;;;0.60;0.60;;;;;;;8.77;71.57;100167.00;5116883;28;20096;-65
2023/01/06 14:15:03;;;;;;;0.30;0.30;;;;;;;8.74;70.98;100172.03;5116637;28;20051;-65
2023/01/06 14:17:39;;;;;;;1.50;1.17;;;;;;;8.74;71.49;100156.78;5117050;28;20580;-65
2023/01/06 14:20:26;;;;;;;0.75;0.75;;;;;;;8.73;71.88;100160.16;5116902;28;20507;-65
2023/01/06 14:23:01;;;;;;;0.50;0.50;;;;;;;8.72;71.67;100148.25;5116580;28;20050;-65
2023/01/06 14:25:30;;;;;;;0.60;0.60;;;;;;;8.70;72.01;100140.63;5116526;28;20054;-65
2023/01/06 14:28:15;;;;;;;0.95;0.75;;;;;;;8.66;72.13;100148.19;5116782;27;20040;-65
2023/01/06 14:30:46;;;;;;;1.35;1.08;;;;;;;8.66;72.27;100143.09;5116470;28;20044;-65
2023/01/06 14:33:29;;;;;;;0.40;0.40;;;;;;;8.62;72.05;100136.25;5116621;28;20096;-65
2023/01/06 14:36:04;;;;;;;1.08;0.98;;;;;;;8.58;72.27;100139.59;5116629;28;20075;-65
2023/01/06 14:38:41;;;;;;;0.40;0.40;;;;;;;8.56;72.58;100134.50;5115368;28;20498;-64
2023/01/06 14:41:20;;;;;;;1.38;1.27;;;;;;;8.54;72.89;100140.38;5116484;28;20062;-65
2023/01/06 14:43:55;;;;;;;2.17;1.85;;;;;;;8.48;73.43;100148.75;5116539;28;20039;-65
2023/01/06 14:46:30;;;;;;;0.45;0.45;;;;;;;8.47;74.10;100146.22;5116476;28;20082;-65
2023/01/06 14:49:03;;;;;;;0.65;0.65;;;;;;;8.46;73.68;100139.41;5116069;28;20147;-65
2023/01/06 14:51:33;;;;;;;0.50;0.50;;;;;;;8.45;74.32;100137.69;5116100;28;20054;-65
2023/01/06 14:54:07;;;;;;;3.17;1.70;;;;;;;8.44;73.63;100133.44;5115869;28;20405;-65
2023/01/06 14:56:36;;;;;;;1.25;1.15;;;;;;;8.40;73.90;100149.47;5116310;28;20501;-65
2023/01/06 14:59:11;;;;;;;2.43;1.20;;;;;;;8.38;74.84;100153.69;5115906;28;20114;-65
2023/01/06 15:01:44;;;;;;;1.35;1.25;;;;;;;8.36;74.98;100147.72;5115877;28;20051;-65
2023/01/06 15:04:26;;;;;;;0.70;0.70;;;;;;;8.33;75.29;100142.56;5115802;28;20543;-65
2023/01/06 15:07:06;;;;;;;0.57;0.50;;;;;;;8.31;75.22;100145.09;5115735;28;20067;-65
2023/01/06 15:09:34;;;;;;;0.98;0.93;;;;;;;8.30;75.03;100147.63;5115974;28;20554;-65
2023/01/06 15:12:03;;;;;;;1.57;1.27;;;;;;;8.26;75.41;100140.72;5115587;28;20040;-65
2023/01/06 15:14:34;;;;;;;1.33;1.15;;;;;;;8.23;75.70;100133.09;5115528;28;20042;-65
2023/01/06 15:17:06;;;;;;;0.45;0.45;;;;;;;8.26;75.68;100135.66;5114560;28;20126;-65
2023/01/06 15:19:35;;;;;;;3.95;1.33;;;;;;;8.25;75.78;100139.03;5115457;28;20126;-65
2023/01/06 15:22:08;;;;;;;0.50;0.50;;;;;;;8.23;75.85;100136.47;5115495;28;20040;-65
2023/01/06 15:24:42;;;;;;;1.98;0.82;;;;;;;8.19;75.97;100144.88;5115383;28;20077;-65
2023/01/06 15:27:14;;;;;;;1.38;1.25;;;;;;;8.15;76.35;100142.25;5115718;28;20066;-65
2023/01/06 15:29:55;;;;;;;1.13;1.02;;;;;;;8.06;76.93;100142.97;5115320;28;20055;-65
2023/01/06 15:32:27;;;;;;;0.65;0.65;;;;;;;8.09;76.16;100146.41;5115291;28;20048;-65
2023/01/06 15:34:58;;;;;;;1.15;1.05;;;;;;;8.03;76.76;100138.69;5115481;28;20040;-65
2023/01/06 15:37:33;;;;;;;0.50;0.50;;;;;;;8.03;76.73;100153.94;5115090;28;20580;-65
2023/01/06 15:40:06;;;;;;;2.35;1.80;;;;;;;8.02;76.80;100152.22;5115120;28;20093;-65
2023/01/06 15:42:36;;;;;;;1.15;1.05;;;;;;;8.00;76.41;100148.81;5115329;28;20146;-65
2023/01/06 15:45:06;;;;;;;0.50;0.50;;;;;;;7.97;76.08;100156.38;5115319;28;20040;-65
2023/01/06 15:47:41;;;;;;;0.52;0.52;;;;;;;7.94;76.18;100153.78;5115272;28;20062;-65
2023/01/06 15:50:18;;;;;;;1.23;0.88;;;;;;;7.89;76.81;100147.75;5114896;28;20040;-65
2023/01/06 15:52:49;;;;;;;2.40;1.20;;;;;;;7.87;77.00;100141.78;5114905;28;20440;-65
2023/01/06 15:55:26;;;;;;;0.93;0.88;;;;;;;7.84;76.71;100135.81;5114688;28;20094;-65
2023/01/06 15:58:00;;;;;;;0.70;0.70;;;;;;;7.81;76.80;100121.38;5115068;28;20066;-65
2023/01/06 16:00:34;;;;;;;1.50;1.40;;;;;;;7.75;76.85;100121.25;5114965;28;20424;-65
2023/01/06 16:03:06;;;;;;;1.42;1.30;;;;;;;7.72;76.94;100131.38;5114938;28;20063;-65
2023/01/06 16:05:39;;;;;;;0.82;0.80;;;;;;;7.70;77.17;100125.38;5115015;28;20063;-65
2023/01/06 16:08:22;;;;;;;0.57;0.55;;;;;;;7.66;77.69;100116.00;5114866;28;20448;-65
2023/01/06 16:11:09;;;;;;;1.23;1.13;;;;;;;7.62;78.09;100115.94;5114854;28;20051;-65
2023/01/06 16:13:40;;;;;;;0.80;0.80;;;;;;;7.61;77.37;100115.06;5114753;28;20075;-65
2023/01/06 16:16:27;;;;;;;2.05;1.92;;;;;;;7.58;78.14;100112.50;5115000;28;20039;-65